sensor_id;sensor_type;location;lat;lon;timestamp;temperature;humidity
21712;DHT22;11017;53.552;9.910;2022-12-20T00:00:27;8.20;99.90
21712;DHT22;11017;53.552;9.910;2022-12-20T00:02:56;8.30;99.90
21712;DHT22;11017;53.552;9.910;2022-12-20T00:05:23;8.30;99.90
21712;DHT22;11017;53.552;9.910;2022-12-20T00:07:50;8.40;99.90
21712;DHT22;11017;53.552;9.910;2022-12-20T00:10:18;8.30;99.90
21712;DHT22;11017;53.552;9.910;2022-12-20T00:12:46;8.40;99.90
21712;DHT22;11017;53.552;9.910;2022-12-20T00:15:14;8.40;99.90
21712;DHT22;11017;53.552;9.910;2022-12-20T00:17:42;8.40;99.90
21712;DHT22;11017;53.552;9.910;2022-12-20T00:20:09;8.40;99.90
21712;DHT22;11017;53.552;9.910;2022-12-20T00:22:37;8.40;99.90
21712;DHT22;11017;53.552;9.910;2022-12-20T00:25:05;8.50;99.90
21712;DHT22;11017;53.552;9.910;2022-12-20T00:27:32;8.50;99.90
21712;DHT22;11017;53.552;9.910;2022-12-20T00:29:58;8.40;99.90
21712;DHT22;11017;53.552;9.910;2022-12-20T00:32:27;8.40;99.90
21712;DHT22;11017;53.552;9.910;2022-12-20T00:34:54;8.40;99.90
21712;DHT22;11017;53.552;9.910;2022-12-20T00:37:21;8.40;99.90
21712;DHT22;11017;53.552;9.910;2022-12-20T00:39:52;8.40;99.90
21712;DHT22;11017;53.552;9.910;2022-12-20T00:42:21;8.50;99.90
21712;DHT22;11017;53.552;9.910;2022-12-20T00:44:48;8.50;99.90
21712;DHT22;11017;53.552;9.910;2022-12-20T00:47:15;8.40;99.90
21712;DHT22;11017;53.552;9.910;2022-12-20T00:49:43;8.40;99.90
21712;DHT22;11017;53.552;9.910;2022-12-20T00:52:10;8.40;99.90
21712;DHT22;11017;53.552;9.910;2022-12-20T00:54:37;8.30;99.90
21712;DHT22;11017;53.552;9.910;2022-12-20T00:57:03;8.40;99.90
21712;DHT22;11017;53.552;9.910;2022-12-20T00:59:32;8.40;99.90
21712;DHT22;11017;53.552;9.910;2022-12-20T01:01:59;8.40;99.90
21712;DHT22;11017;53.552;9.910;2022-12-20T01:04:25;8.40;99.90
21712;DHT22;11017;53.552;9.910;2022-12-20T01:06:54;8.50;99.90
21712;DHT22;11017;53.552;9.910;2022-12-20T01:09:21;8.40;99.90
21712;DHT22;11017;53.552;9.910;2022-12-20T01:11:48;8.30;99.90
21712;DHT22;11017;53.552;9.910;2022-12-20T01:14:16;8.30;99.90
21712;DHT22;11017;53.552;9.910;2022-12-20T01:16:46;8.30;99.90
21712;DHT22;11017;53.552;9.910;2022-12-20T01:19:16;8.40;99.90
21712;DHT22;11017;53.552;9.910;2022-12-20T01:21:43;8.50;99.90
21712;DHT22;11017;53.552;9.910;2022-12-20T01:24:12;8.50;99.90
21712;DHT22;11017;53.552;9.910;2022-12-20T01:26:39;8.60;99.90
21712;DHT22;11017;53.552;9.910;2022-12-20T01:29:06;8.60;99.90
21712;DHT22;11017;53.552;9.910;2022-12-20T01:31:33;8.60;99.90
21712;DHT22;11017;53.552;9.910;2022-12-20T01:34:00;8.60;99.90
21712;DHT22;11017;53.552;9.910;2022-12-20T01:36:30;8.60;99.90
21712;DHT22;11017;53.552;9.910;2022-12-20T01:38:57;8.70;99.90
21712;DHT22;11017;53.552;9.910;2022-12-20T01:41:27;8.70;99.90
21712;DHT22;11017;53.552;9.910;2022-12-20T01:43:56;8.80;99.90
21712;DHT22;11017;53.552;9.910;2022-12-20T01:46:25;8.80;99.90
21712;DHT22;11017;53.552;9.910;2022-12-20T01:48:54;8.80;99.90
21712;DHT22;11017;53.552;9.910;2022-12-20T01:51:23;8.80;99.90
21712;DHT22;11017;53.552;9.910;2022-12-20T01:53:57;8.90;99.90
21712;DHT22;11017;53.552;9.910;2022-12-20T01:56:28;8.90;99.90
21712;DHT22;11017;53.552;9.910;2022-12-20T01:58:56;9.00;99.90
21712;DHT22;11017;53.552;9.910;2022-12-20T02:01:23;9.00;99.90
21712;DHT22;11017;53.552;9.910;2022-12-20T02:03:53;9.00;99.90
21712;DHT22;11017;53.552;9.910;2022-12-20T02:06:23;9.00;99.90
21712;DHT22;11017;53.552;9.910;2022-12-20T02:08:52;9.00;99.90
21712;DHT22;11017;53.552;9.910;2022-12-20T02:14:16;9.00;99.90
21712;DHT22;11017;53.552;9.910;2022-12-20T02:16:49;9.00;99.90
21712;DHT22;11017;53.552;9.910;2022-12-20T02:19:35;9.10;99.90
21712;DHT22;11017;53.552;9.910;2022-12-20T02:22:15;9.10;99.90
21712;DHT22;11017;53.552;9.910;2022-12-20T02:24:57;9.10;99.90
21712;DHT22;11017;53.552;9.910;2022-12-20T02:27:33;9.10;99.90
21712;DHT22;11017;53.552;9.910;2022-12-20T02:30:11;9.20;99.90
21712;DHT22;11017;53.552;9.910;2022-12-20T02:32:43;9.20;99.90
21712;DHT22;11017;53.552;9.910;2022-12-20T02:35:13;9.20;99.90
21712;DHT22;11017;53.552;9.910;2022-12-20T02:37:49;9.20;99.90
21712;DHT22;11017;53.552;9.910;2022-12-20T02:40:19;9.30;99.90
21712;DHT22;11017;53.552;9.910;2022-12-20T02:42:49;9.30;99.90
21712;DHT22;11017;53.552;9.910;2022-12-20T02:45:20;9.30;99.90
21712;DHT22;11017;53.552;9.910;2022-12-20T02:47:51;9.40;99.90
21712;DHT22;11017;53.552;9.910;2022-12-20T02:50:21;9.30;99.90
21712;DHT22;11017;53.552;9.910;2022-12-20T02:52:52;9.40;99.90
21712;DHT22;11017;53.552;9.910;2022-12-20T02:55:24;9.50;99.90
21712;DHT22;11017;53.552;9.910;2022-12-20T02:57:58;9.50;99.90
21712;DHT22;11017;53.552;9.910;2022-12-20T03:00:32;9.50;99.90
21712;DHT22;11017;53.552;9.910;2022-12-20T03:03:00;9.50;99.90
21712;DHT22;11017;53.552;9.910;2022-12-20T03:05:46;9.40;99.90
21712;DHT22;11017;53.552;9.910;2022-12-20T03:08:14;9.50;99.90
21712;DHT22;11017;53.552;9.910;2022-12-20T03:10:41;9.60;99.90
21712;DHT22;11017;53.552;9.910;2022-12-20T03:13:07;9.60;99.90
21712;DHT22;11017;53.552;9.910;2022-12-20T03:15:36;9.50;99.90
21712;DHT22;11017;53.552;9.910;2022-12-20T03:18:03;9.60;99.90
21712;DHT22;11017;53.552;9.910;2022-12-20T03:20:30;9.60;99.90
21712;DHT22;11017;53.552;9.910;2022-12-20T03:22:57;9.60;99.90
21712;DHT22;11017;53.552;9.910;2022-12-20T03:25:24;9.70;99.90
21712;DHT22;11017;53.552;9.910;2022-12-20T03:27:51;9.70;99.90
21712;DHT22;11017;53.552;9.910;2022-12-20T03:30:18;9.70;99.90
21712;DHT22;11017;53.552;9.910;2022-12-20T03:32:46;9.80;99.90
21712;DHT22;11017;53.552;9.910;2022-12-20T03:35:14;9.80;99.90
21712;DHT22;11017;53.552;9.910;2022-12-20T03:37:41;9.90;99.90
21712;DHT22;11017;53.552;9.910;2022-12-20T03:40:09;9.90;99.90
21712;DHT22;11017;53.552;9.910;2022-12-20T03:42:36;9.90;99.90
21712;DHT22;11017;53.552;9.910;2022-12-20T03:45:04;9.90;99.90
21712;DHT22;11017;53.552;9.910;2022-12-20T03:47:31;9.80;99.90
21712;DHT22;11017;53.552;9.910;2022-12-20T03:50:00;9.90;99.90
21712;DHT22;11017;53.552;9.910;2022-12-20T03:52:27;9.90;99.90
21712;DHT22;11017;53.552;9.910;2022-12-20T03:54:53;9.90;99.90
21712;DHT22;11017;53.552;9.910;2022-12-20T03:57:20;9.90;99.90
21712;DHT22;11017;53.552;9.910;2022-12-20T03:59:47;9.90;99.90
21712;DHT22;11017;53.552;9.910;2022-12-20T04:02:14;9.90;99.90
21712;DHT22;11017;53.552;9.910;2022-12-20T04:04:41;9.90;99.90
21712;DHT22;11017;53.552;9.910;2022-12-20T04:07:09;10.00;99.90
21712;DHT22;11017;53.552;9.910;2022-12-20T04:09:36;10.00;99.90
21712;DHT22;11017;53.552;9.910;2022-12-20T04:12:04;10.00;99.90
21712;DHT22;11017;53.552;9.910;2022-12-20T04:14:31;9.90;99.90
21712;DHT22;11017;53.552;9.910;2022-12-20T04:16:58;9.90;99.90
21712;DHT22;11017;53.552;9.910;2022-12-20T04:19:25;10.00;99.90
21712;DHT22;11017;53.552;9.910;2022-12-20T04:21:52;10.00;99.90
21712;DHT22;11017;53.552;9.910;2022-12-20T04:24:21;10.10;99.90
21712;DHT22;11017;53.552;9.910;2022-12-20T04:26:48;10.00;99.90
21712;DHT22;11017;53.552;9.910;2022-12-20T04:29:15;10.00;99.90
21712;DHT22;11017;53.552;9.910;2022-12-20T04:31:42;10.10;99.90
21712;DHT22;11017;53.552;9.910;2022-12-20T04:34:09;10.00;99.90
21712;DHT22;11017;53.552;9.910;2022-12-20T04:36:36;10.10;99.90
21712;DHT22;11017;53.552;9.910;2022-12-20T04:39:03;10.10;99.90
21712;DHT22;11017;53.552;9.910;2022-12-20T04:41:31;10.10;99.90
21712;DHT22;11017;53.552;9.910;2022-12-20T04:43:58;10.10;99.90
21712;DHT22;11017;53.552;9.910;2022-12-20T04:46:25;10.20;99.90
21712;DHT22;11017;53.552;9.910;2022-12-20T04:48:52;10.20;99.90
21712;DHT22;11017;53.552;9.910;2022-12-20T04:51:19;10.20;99.90
21712;DHT22;11017;53.552;9.910;2022-12-20T04:53:46;10.20;99.90
21712;DHT22;11017;53.552;9.910;2022-12-20T04:56:13;10.20;99.90
21712;DHT22;11017;53.552;9.910;2022-12-20T04:58:42;10.20;99.90
21712;DHT22;11017;53.552;9.910;2022-12-20T05:01:09;10.20;99.90
21712;DHT22;11017;53.552;9.910;2022-12-20T05:03:36;10.00;99.90
21712;DHT22;11017;53.552;9.910;2022-12-20T05:06:03;10.10;99.90
21712;DHT22;11017;53.552;9.910;2022-12-20T05:08:30;10.00;99.90
21712;DHT22;11017;53.552;9.910;2022-12-20T05:10:57;9.90;99.90
21712;DHT22;11017;53.552;9.910;2022-12-20T05:13:23;9.80;99.90
21712;DHT22;11017;53.552;9.910;2022-12-20T05:15:52;9.80;99.90
21712;DHT22;11017;53.552;9.910;2022-12-20T05:18:20;9.80;99.90
21712;DHT22;11017;53.552;9.910;2022-12-20T05:20:49;9.80;99.90
21712;DHT22;11017;53.552;9.910;2022-12-20T05:23:37;9.80;99.90
21712;DHT22;11017;53.552;9.910;2022-12-20T05:26:25;9.80;99.90
21712;DHT22;11017;53.552;9.910;2022-12-20T05:28:54;9.80;99.90
21712;DHT22;11017;53.552;9.910;2022-12-20T05:31:22;9.80;99.90
21712;DHT22;11017;53.552;9.910;2022-12-20T05:33:49;9.80;99.90
21712;DHT22;11017;53.552;9.910;2022-12-20T05:36:16;9.80;99.90
21712;DHT22;11017;53.552;9.910;2022-12-20T05:38:46;9.80;99.90
21712;DHT22;11017;53.552;9.910;2022-12-20T05:41:13;9.80;99.90
21712;DHT22;11017;53.552;9.910;2022-12-20T05:43:40;9.80;99.90
21712;DHT22;11017;53.552;9.910;2022-12-20T05:46:09;9.80;99.90
21712;DHT22;11017;53.552;9.910;2022-12-20T05:48:37;9.90;99.90
21712;DHT22;11017;53.552;9.910;2022-12-20T05:51:05;10.00;99.90
21712;DHT22;11017;53.552;9.910;2022-12-20T05:53:32;10.00;99.90
21712;DHT22;11017;53.552;9.910;2022-12-20T05:56:00;10.00;99.90
21712;DHT22;11017;53.552;9.910;2022-12-20T05:58:27;10.00;99.90
21712;DHT22;11017;53.552;9.910;2022-12-20T06:00:54;10.00;99.90
21712;DHT22;11017;53.552;9.910;2022-12-20T06:03:22;10.00;99.90
21712;DHT22;11017;53.552;9.910;2022-12-20T06:05:50;10.00;99.90
21712;DHT22;11017;53.552;9.910;2022-12-20T06:08:17;10.00;99.90
21712;DHT22;11017;53.552;9.910;2022-12-20T06:10:47;9.90;99.90
21712;DHT22;11017;53.552;9.910;2022-12-20T06:13:16;9.90;99.90
21712;DHT22;11017;53.552;9.910;2022-12-20T06:15:43;9.90;99.90
21712;DHT22;11017;53.552;9.910;2022-12-20T06:18:10;9.90;99.90
21712;DHT22;11017;53.552;9.910;2022-12-20T06:20:37;9.90;99.90
21712;DHT22;11017;53.552;9.910;2022-12-20T06:23:05;9.80;99.90
21712;DHT22;11017;53.552;9.910;2022-12-20T06:25:34;9.90;99.90
21712;DHT22;11017;53.552;9.910;2022-12-20T06:28:01;9.90;99.90
21712;DHT22;11017;53.552;9.910;2022-12-20T06:30:29;9.90;99.90
21712;DHT22;11017;53.552;9.910;2022-12-20T06:32:56;9.90;99.90
21712;DHT22;11017;53.552;9.910;2022-12-20T06:35:23;10.00;99.90
21712;DHT22;11017;53.552;9.910;2022-12-20T06:37:50;10.00;99.90
21712;DHT22;11017;53.552;9.910;2022-12-20T06:40:19;10.00;99.90
21712;DHT22;11017;53.552;9.910;2022-12-20T06:42:45;10.00;99.90
21712;DHT22;11017;53.552;9.910;2022-12-20T06:45:12;10.00;99.90
21712;DHT22;11017;53.552;9.910;2022-12-20T06:47:39;10.00;99.90
21712;DHT22;11017;53.552;9.910;2022-12-20T06:50:07;10.10;99.90
21712;DHT22;11017;53.552;9.910;2022-12-20T06:52:34;10.10;99.90
21712;DHT22;11017;53.552;9.910;2022-12-20T06:55:01;10.10;99.90
21712;DHT22;11017;53.552;9.910;2022-12-20T06:57:29;10.00;99.90
21712;DHT22;11017;53.552;9.910;2022-12-20T06:59:56;10.00;99.90
21712;DHT22;11017;53.552;9.910;2022-12-20T07:02:23;10.10;99.90
21712;DHT22;11017;53.552;9.910;2022-12-20T07:04:50;10.10;99.90
21712;DHT22;11017;53.552;9.910;2022-12-20T07:07:17;10.00;99.90
21712;DHT22;11017;53.552;9.910;2022-12-20T07:09:44;10.10;99.90
21712;DHT22;11017;53.552;9.910;2022-12-20T07:12:11;10.00;99.90
21712;DHT22;11017;53.552;9.910;2022-12-20T07:14:40;10.00;99.90
21712;DHT22;11017;53.552;9.910;2022-12-20T07:17:08;10.00;99.90
21712;DHT22;11017;53.552;9.910;2022-12-20T07:19:35;10.00;99.90
21712;DHT22;11017;53.552;9.910;2022-12-20T07:22:02;10.00;99.90
21712;DHT22;11017;53.552;9.910;2022-12-20T07:24:29;10.10;99.90
21712;DHT22;11017;53.552;9.910;2022-12-20T07:26:56;10.10;99.90
21712;DHT22;11017;53.552;9.910;2022-12-20T07:29:23;10.10;99.90
21712;DHT22;11017;53.552;9.910;2022-12-20T07:31:51;10.00;99.90
21712;DHT22;11017;53.552;9.910;2022-12-20T07:34:18;10.10;99.90
21712;DHT22;11017;53.552;9.910;2022-12-20T07:36:46;10.10;99.90
21712;DHT22;11017;53.552;9.910;2022-12-20T07:39:13;10.00;99.90
21712;DHT22;11017;53.552;9.910;2022-12-20T07:41:40;9.90;99.90
21712;DHT22;11017;53.552;9.910;2022-12-20T07:44:07;9.80;99.90
21712;DHT22;11017;53.552;9.910;2022-12-20T07:46:33;9.90;99.90
21712;DHT22;11017;53.552;9.910;2022-12-20T07:49:02;10.00;99.90
21712;DHT22;11017;53.552;9.910;2022-12-20T07:51:33;10.00;99.90
21712;DHT22;11017;53.552;9.910;2022-12-20T07:54:04;10.00;99.90
21712;DHT22;11017;53.552;9.910;2022-12-20T07:56:34;10.00;99.90
21712;DHT22;11017;53.552;9.910;2022-12-20T07:59:05;10.00;99.90
21712;DHT22;11017;53.552;9.910;2022-12-20T08:01:32;10.10;99.90
21712;DHT22;11017;53.552;9.910;2022-12-20T08:04:03;10.20;99.90
21712;DHT22;11017;53.552;9.910;2022-12-20T08:06:31;10.20;99.90
21712;DHT22;11017;53.552;9.910;2022-12-20T08:09:03;10.20;99.90
21712;DHT22;11017;53.552;9.910;2022-12-20T08:11:32;10.10;99.90
21712;DHT22;11017;53.552;9.910;2022-12-20T08:14:00;10.20;99.90
21712;DHT22;11017;53.552;9.910;2022-12-20T08:16:28;10.20;99.90
21712;DHT22;11017;53.552;9.910;2022-12-20T08:18:57;10.20;99.90
21712;DHT22;11017;53.552;9.910;2022-12-20T08:21:25;10.30;99.90
21712;DHT22;11017;53.552;9.910;2022-12-20T08:23:53;10.30;99.90
21712;DHT22;11017;53.552;9.910;2022-12-20T08:26:24;10.30;99.90
21712;DHT22;11017;53.552;9.910;2022-12-20T08:28:52;10.40;99.90
21712;DHT22;11017;53.552;9.910;2022-12-20T08:31:19;10.30;99.90
21712;DHT22;11017;53.552;9.910;2022-12-20T08:33:46;10.40;99.90
21712;DHT22;11017;53.552;9.910;2022-12-20T08:36:13;10.50;99.90
21712;DHT22;11017;53.552;9.910;2022-12-20T08:38:42;10.50;99.90
21712;DHT22;11017;53.552;9.910;2022-12-20T08:41:11;10.60;99.90
21712;DHT22;11017;53.552;9.910;2022-12-20T08:43:39;10.70;99.90
21712;DHT22;11017;53.552;9.910;2022-12-20T08:46:07;10.70;99.90
21712;DHT22;11017;53.552;9.910;2022-12-20T08:48:35;10.70;99.90
21712;DHT22;11017;53.552;9.910;2022-12-20T08:51:07;10.80;99.90
21712;DHT22;11017;53.552;9.910;2022-12-20T08:53:34;10.80;99.90
21712;DHT22;11017;53.552;9.910;2022-12-20T08:56:07;10.60;99.90
21712;DHT22;11017;53.552;9.910;2022-12-20T08:58:36;10.70;99.90
21712;DHT22;11017;53.552;9.910;2022-12-20T09:01:05;10.70;99.90
21712;DHT22;11017;53.552;9.910;2022-12-20T09:03:33;10.70;99.90
21712;DHT22;11017;53.552;9.910;2022-12-20T09:06:04;10.70;99.90
21712;DHT22;11017;53.552;9.910;2022-12-20T09:08:32;10.70;99.90
21712;DHT22;11017;53.552;9.910;2022-12-20T09:11:06;10.80;99.90
21712;DHT22;11017;53.552;9.910;2022-12-20T09:13:34;10.90;99.90
21712;DHT22;11017;53.552;9.910;2022-12-20T09:16:01;10.80;99.90
21712;DHT22;11017;53.552;9.910;2022-12-20T09:18:29;11.00;99.90
21712;DHT22;11017;53.552;9.910;2022-12-20T09:20:58;11.00;99.90
21712;DHT22;11017;53.552;9.910;2022-12-20T09:23:25;11.20;99.90
21712;DHT22;11017;53.552;9.910;2022-12-20T09:25:52;11.10;99.90
21712;DHT22;11017;53.552;9.910;2022-12-20T09:28:21;11.20;99.90
21712;DHT22;11017;53.552;9.910;2022-12-20T09:30:51;11.10;99.90
21712;DHT22;11017;53.552;9.910;2022-12-20T09:33:18;11.10;99.90
21712;DHT22;11017;53.552;9.910;2022-12-20T09:35:45;11.10;99.90
21712;DHT22;11017;53.552;9.910;2022-12-20T09:38:12;11.00;99.90
21712;DHT22;11017;53.552;9.910;2022-12-20T09:40:44;11.00;99.90
21712;DHT22;11017;53.552;9.910;2022-12-20T09:43:13;11.10;99.90
21712;DHT22;11017;53.552;9.910;2022-12-20T09:45:42;10.90;99.90
21712;DHT22;11017;53.552;9.910;2022-12-20T09:48:16;11.10;99.90
21712;DHT22;11017;53.552;9.910;2022-12-20T09:50:52;11.10;99.90
21712;DHT22;11017;53.552;9.910;2022-12-20T09:53:30;11.10;99.90
21712;DHT22;11017;53.552;9.910;2022-12-20T09:56:02;11.20;99.90
21712;DHT22;11017;53.552;9.910;2022-12-20T09:58:39;11.10;99.90
21712;DHT22;11017;53.552;9.910;2022-12-20T10:01:15;11.00;99.90
21712;DHT22;11017;53.552;9.910;2022-12-20T10:03:43;10.90;99.90
21712;DHT22;11017;53.552;9.910;2022-12-20T10:06:17;10.70;99.90
21712;DHT22;11017;53.552;9.910;2022-12-20T10:08:50;10.60;99.90
21712;DHT22;11017;53.552;9.910;2022-12-20T10:11:33;10.70;99.90
21712;DHT22;11017;53.552;9.910;2022-12-20T10:14:07;10.70;99.90
21712;DHT22;11017;53.552;9.910;2022-12-20T10:16:43;10.90;99.90
21712;DHT22;11017;53.552;9.910;2022-12-20T10:19:20;10.90;99.90
21712;DHT22;11017;53.552;9.910;2022-12-20T10:21:56;11.00;99.90
21712;DHT22;11017;53.552;9.910;2022-12-20T10:24:30;11.00;99.90
21712;DHT22;11017;53.552;9.910;2022-12-20T10:27:06;11.10;99.90
21712;DHT22;11017;53.552;9.910;2022-12-20T10:29:36;11.10;99.90
21712;DHT22;11017;53.552;9.910;2022-12-20T10:32:14;11.10;99.90
21712;DHT22;11017;53.552;9.910;2022-12-20T10:34:49;11.20;99.90
21712;DHT22;11017;53.552;9.910;2022-12-20T10:37:17;11.10;99.90
21712;DHT22;11017;53.552;9.910;2022-12-20T10:39:47;11.40;99.90
21712;DHT22;11017;53.552;9.910;2022-12-20T10:42:29;11.40;99.90
21712;DHT22;11017;53.552;9.910;2022-12-20T10:44:58;11.50;99.90
21712;DHT22;11017;53.552;9.910;2022-12-20T10:47:35;11.60;99.90
21712;DHT22;11017;53.552;9.910;2022-12-20T10:50:15;11.70;99.90
21712;DHT22;11017;53.552;9.910;2022-12-20T10:52:43;11.60;99.90
21712;DHT22;11017;53.552;9.910;2022-12-20T10:55:32;11.70;99.90
21712;DHT22;11017;53.552;9.910;2022-12-20T10:58:05;11.80;99.90
21712;DHT22;11017;53.552;9.910;2022-12-20T11:00:37;11.90;99.90
21712;DHT22;11017;53.552;9.910;2022-12-20T11:03:11;11.90;99.90
21712;DHT22;11017;53.552;9.910;2022-12-20T11:05:39;12.00;99.90
21712;DHT22;11017;53.552;9.910;2022-12-20T11:08:12;12.00;99.90
21712;DHT22;11017;53.552;9.910;2022-12-20T11:10:41;12.10;99.90
21712;DHT22;11017;53.552;9.910;2022-12-20T11:13:19;12.20;99.90
21712;DHT22;11017;53.552;9.910;2022-12-20T11:15:48;12.30;99.90
21712;DHT22;11017;53.552;9.910;2022-12-20T11:18:22;12.40;99.90
21712;DHT22;11017;53.552;9.910;2022-12-20T11:20:56;12.60;99.90
21712;DHT22;11017;53.552;9.910;2022-12-20T11:23:33;12.60;99.90
21712;DHT22;11017;53.552;9.910;2022-12-20T11:26:18;12.40;99.90
21712;DHT22;11017;53.552;9.910;2022-12-20T11:28:56;12.40;99.90
21712;DHT22;11017;53.552;9.910;2022-12-20T11:31:34;12.30;99.90
21712;DHT22;11017;53.552;9.910;2022-12-20T11:34:18;12.20;99.90
21712;DHT22;11017;53.552;9.910;2022-12-20T11:37:16;12.30;99.90
21712;DHT22;11017;53.552;9.910;2022-12-20T11:40:01;12.10;99.90
21712;DHT22;11017;53.552;9.910;2022-12-20T11:42:41;12.20;99.90
21712;DHT22;11017;53.552;9.910;2022-12-20T11:45:21;12.20;99.90
21712;DHT22;11017;53.552;9.910;2022-12-20T11:48:03;12.20;99.90
21712;DHT22;11017;53.552;9.910;2022-12-20T11:50:44;12.30;99.90
21712;DHT22;11017;53.552;9.910;2022-12-20T11:53:20;12.20;99.90
21712;DHT22;11017;53.552;9.910;2022-12-20T11:55:52;12.30;99.90
21712;DHT22;11017;53.552;9.910;2022-12-20T11:58:24;12.30;99.90
21712;DHT22;11017;53.552;9.910;2022-12-20T12:00:57;12.30;99.90
21712;DHT22;11017;53.552;9.910;2022-12-20T12:03:29;12.30;99.90
21712;DHT22;11017;53.552;9.910;2022-12-20T12:06:04;12.20;99.90
21712;DHT22;11017;53.552;9.910;2022-12-20T12:08:39;12.10;99.90
21712;DHT22;11017;53.552;9.910;2022-12-20T12:11:11;12.10;99.90
21712;DHT22;11017;53.552;9.910;2022-12-20T12:13:41;12.10;99.90
21712;DHT22;11017;53.552;9.910;2022-12-20T12:16:11;12.00;99.90
21712;DHT22;11017;53.552;9.910;2022-12-20T12:18:40;12.10;99.90
21712;DHT22;11017;53.552;9.910;2022-12-20T12:21:18;12.10;99.90
21712;DHT22;11017;53.552;9.910;2022-12-20T12:23:59;12.00;99.90
21712;DHT22;11017;53.552;9.910;2022-12-20T12:26:28;11.90;99.90
21712;DHT22;11017;53.552;9.910;2022-12-20T12:28:58;11.80;99.90
21712;DHT22;11017;53.552;9.910;2022-12-20T12:31:28;11.70;99.90
21712;DHT22;11017;53.552;9.910;2022-12-20T12:34:14;11.70;99.90
21712;DHT22;11017;53.552;9.910;2022-12-20T12:36:59;11.60;99.90
21712;DHT22;11017;53.552;9.910;2022-12-20T12:39:53;11.50;99.90
21712;DHT22;11017;53.552;9.910;2022-12-20T12:42:46;11.40;99.90
21712;DHT22;11017;53.552;9.910;2022-12-20T12:45:25;11.30;99.90
21712;DHT22;11017;53.552;9.910;2022-12-20T12:47:55;11.20;99.90
21712;DHT22;11017;53.552;9.910;2022-12-20T12:50:26;11.30;99.90
21712;DHT22;11017;53.552;9.910;2022-12-20T12:52:57;11.30;99.90
21712;DHT22;11017;53.552;9.910;2022-12-20T12:55:40;11.30;99.90
21712;DHT22;11017;53.552;9.910;2022-12-20T12:58:32;11.20;99.90
21712;DHT22;11017;53.552;9.910;2022-12-20T13:01:02;11.00;99.90
21712;DHT22;11017;53.552;9.910;2022-12-20T13:04:19;11.00;99.90
21712;DHT22;11017;53.552;9.910;2022-12-20T13:06:59;11.00;99.90
21712;DHT22;11017;53.552;9.910;2022-12-20T13:09:38;11.00;99.90
21712;DHT22;11017;53.552;9.910;2022-12-20T13:18:22;11.00;99.90
21712;DHT22;11017;53.552;9.910;2022-12-20T13:21:29;11.00;99.90
21712;DHT22;11017;53.552;9.910;2022-12-20T13:27:13;11.00;99.90
21712;DHT22;11017;53.552;9.910;2022-12-20T13:29:51;10.90;99.90
21712;DHT22;11017;53.552;9.910;2022-12-20T13:32:53;11.00;99.90
21712;DHT22;11017;53.552;9.910;2022-12-20T13:35:29;10.90;99.90
21712;DHT22;11017;53.552;9.910;2022-12-20T13:37:58;10.80;99.90
21712;DHT22;11017;53.552;9.910;2022-12-20T13:40:32;10.80;99.90
21712;DHT22;11017;53.552;9.910;2022-12-20T13:43:04;10.80;99.90
21712;DHT22;11017;53.552;9.910;2022-12-20T13:45:32;10.80;99.90
21712;DHT22;11017;53.552;9.910;2022-12-20T13:48:02;10.70;99.90
21712;DHT22;11017;53.552;9.910;2022-12-20T13:50:32;10.70;99.90
21712;DHT22;11017;53.552;9.910;2022-12-20T13:53:04;10.80;99.90
21712;DHT22;11017;53.552;9.910;2022-12-20T13:55:35;10.70;99.90
21712;DHT22;11017;53.552;9.910;2022-12-20T13:58:04;10.70;99.90
21712;DHT22;11017;53.552;9.910;2022-12-20T14:00:32;10.80;99.90
21712;DHT22;11017;53.552;9.910;2022-12-20T14:03:00;10.80;99.90
21712;DHT22;11017;53.552;9.910;2022-12-20T14:05:31;10.70;99.90
21712;DHT22;11017;53.552;9.910;2022-12-20T14:08:00;10.70;99.90
21712;DHT22;11017;53.552;9.910;2022-12-20T14:10:31;10.70;99.90
21712;DHT22;11017;53.552;9.910;2022-12-20T14:13:01;10.80;99.90
21712;DHT22;11017;53.552;9.910;2022-12-20T14:15:31;10.80;99.90
21712;DHT22;11017;53.552;9.910;2022-12-20T14:18:04;10.80;99.90
21712;DHT22;11017;53.552;9.910;2022-12-20T14:20:35;10.80;99.90
21712;DHT22;11017;53.552;9.910;2022-12-20T14:23:04;10.80;99.90
21712;DHT22;11017;53.552;9.910;2022-12-20T14:25:40;10.80;99.90
21712;DHT22;11017;53.552;9.910;2022-12-20T14:28:16;10.70;99.90
21712;DHT22;11017;53.552;9.910;2022-12-20T14:30:44;10.60;99.90
21712;DHT22;11017;53.552;9.910;2022-12-20T14:33:25;10.70;99.90
21712;DHT22;11017;53.552;9.910;2022-12-20T14:35:57;10.70;99.90
21712;DHT22;11017;53.552;9.910;2022-12-20T14:38:32;10.60;99.90
21712;DHT22;11017;53.552;9.910;2022-12-20T14:41:01;10.60;99.90
21712;DHT22;11017;53.552;9.910;2022-12-20T14:43:32;10.50;99.90
21712;DHT22;11017;53.552;9.910;2022-12-20T14:46:18;10.50;99.90
21712;DHT22;11017;53.552;9.910;2022-12-20T14:48:45;10.50;99.90
21712;DHT22;11017;53.552;9.910;2022-12-20T14:51:18;10.50;99.90
21712;DHT22;11017;53.552;9.910;2022-12-20T14:53:47;10.40;99.90
21712;DHT22;11017;53.552;9.910;2022-12-20T14:56:18;10.40;99.90
21712;DHT22;11017;53.552;9.910;2022-12-20T14:59:00;10.40;99.90
21712;DHT22;11017;53.552;9.910;2022-12-20T15:01:30;10.30;99.90
21712;DHT22;11017;53.552;9.910;2022-12-20T15:03:59;10.40;99.90
21712;DHT22;11017;53.552;9.910;2022-12-20T15:06:34;10.40;99.90
21712;DHT22;11017;53.552;9.910;2022-12-20T15:09:03;10.40;99.90
21712;DHT22;11017;53.552;9.910;2022-12-20T15:11:33;10.30;99.90
21712;DHT22;11017;53.552;9.910;2022-12-20T15:14:01;10.30;99.90
21712;DHT22;11017;53.552;9.910;2022-12-20T15:16:29;10.40;99.90
21712;DHT22;11017;53.552;9.910;2022-12-20T15:18:58;10.40;99.90
21712;DHT22;11017;53.552;9.910;2022-12-20T15:21:28;10.40;99.90
21712;DHT22;11017;53.552;9.910;2022-12-20T15:23:58;10.40;99.90
21712;DHT22;11017;53.552;9.910;2022-12-20T15:26:27;10.40;99.90
21712;DHT22;11017;53.552;9.910;2022-12-20T15:28:56;10.40;99.90
21712;DHT22;11017;53.552;9.910;2022-12-20T15:31:24;10.50;99.90
21712;DHT22;11017;53.552;9.910;2022-12-20T15:33:52;10.40;99.90
21712;DHT22;11017;53.552;9.910;2022-12-20T15:36:23;10.40;99.90
21712;DHT22;11017;53.552;9.910;2022-12-20T15:38:51;10.40;99.90
21712;DHT22;11017;53.552;9.910;2022-12-20T15:41:21;10.30;99.90
21712;DHT22;11017;53.552;9.910;2022-12-20T15:43:51;10.40;99.90
21712;DHT22;11017;53.552;9.910;2022-12-20T15:46:20;10.40;99.90
21712;DHT22;11017;53.552;9.910;2022-12-20T15:48:47;10.50;99.90
21712;DHT22;11017;53.552;9.910;2022-12-20T15:51:18;10.40;99.90
21712;DHT22;11017;53.552;9.910;2022-12-20T15:53:47;10.40;99.90
21712;DHT22;11017;53.552;9.910;2022-12-20T15:56:18;10.40;99.90
21712;DHT22;11017;53.552;9.910;2022-12-20T15:58:47;10.40;99.90
21712;DHT22;11017;53.552;9.910;2022-12-20T16:01:18;10.40;99.90
21712;DHT22;11017;53.552;9.910;2022-12-20T16:03:47;10.40;99.90
21712;DHT22;11017;53.552;9.910;2022-12-20T16:06:13;10.40;99.90
21712;DHT22;11017;53.552;9.910;2022-12-20T16:08:41;10.40;99.90